sensor_id;sensor_type;location;lat;lon;timestamp;pressure;altitude;pressure_sealevel;temperature;humidity
62510;BME280;48558;48.242;11.654;2023-04-10T00:01:23;96958.53;;;0.91;100.00
62510;BME280;48558;48.242;11.654;2023-04-10T00:05:36;96951.13;;;0.85;100.00
62510;BME280;48558;48.242;11.654;2023-04-10T00:09:48;96944.50;;;0.79;100.00
62510;BME280;48558;48.242;11.654;2023-04-10T00:14:01;96932.00;;;0.63;100.00
62510;BME280;48558;48.242;11.654;2023-04-10T00:18:13;96947.19;;;0.71;100.00
62510;BME280;48558;48.242;11.654;2023-04-10T00:22:26;96945.25;;;0.76;100.00
62510;BME280;48558;48.242;11.654;2023-04-10T00:26:39;96947.59;;;0.70;100.00
62510;BME280;48558;48.242;11.654;2023-04-10T00:30:51;96945.22;;;0.68;100.00
62510;BME280;48558;48.242;11.654;2023-04-10T00:35:04;96941.28;;;0.59;100.00
62510;BME280;48558;48.242;11.654;2023-04-10T00:39:18;96938.53;;;0.45;100.00
62510;BME280;48558;48.242;11.654;2023-04-10T00:43:30;96924.19;;;0.51;100.00
62510;BME280;48558;48.242;11.654;2023-04-10T00:47:43;96922.97;;;0.45;100.00
62510;BME280;48558;48.242;11.654;2023-04-10T00:51:55;96947.94;;;0.65;100.00
62510;BME280;48558;48.242;11.654;2023-04-10T00:56:09;96917.59;;;0.56;100.00
62510;BME280;48558;48.242;11.654;2023-04-10T01:00:21;96934.72;;;0.63;100.00
62510;BME280;48558;48.242;11.654;2023-04-10T01:04:34;96922.25;;;0.52;100.00
62510;BME280;48558;48.242;11.654;2023-04-10T01:13:52;96915.91;;;0.27;100.00
62510;BME280;48558;48.242;11.654;2023-04-10T01:18:15;96915.09;;;0.16;100.00
62510;BME280;48558;48.242;11.654;2023-04-10T01:22:35;96931.41;;;0.19;100.00
62510;BME280;48558;48.242;11.654;2023-04-10T01:31:46;96928.28;;;0.21;100.00
62510;BME280;48558;48.242;11.654;2023-04-10T01:36:24;96920.22;;;0.35;100.00
62510;BME280;48558;48.242;11.654;2023-04-10T01:40:41;96915.53;;;0.32;100.00
62510;BME280;48558;48.242;11.654;2023-04-10T01:45:00;96914.69;;;0.17;100.00
62510;BME280;48558;48.242;11.654;2023-04-10T01:49:15;96905.66;;;0.03;100.00
62510;BME280;48558;48.242;11.654;2023-04-10T01:53:29;96904.91;;;0.06;100.00
62510;BME280;48558;48.242;11.654;2023-04-10T01:57:43;96811.78;;;-0.63;100.00
62510;BME280;48558;48.242;11.654;2023-04-10T02:01:56;96897.03;;;-0.17;100.00
62510;BME280;48558;48.242;11.654;2023-04-10T02:15:25;96910.53;;;-0.28;100.00
62510;BME280;48558;48.242;11.654;2023-04-10T02:19:40;96889.84;;;-0.46;100.00
62510;BME280;48558;48.242;11.654;2023-04-10T02:23:52;96900.03;;;-0.33;100.00
62510;BME280;48558;48.242;11.654;2023-04-10T02:28:06;96906.25;;;-0.29;100.00
62510;BME280;48558;48.242;11.654;2023-04-10T02:32:19;96896.97;;;-0.28;100.00
62510;BME280;48558;48.242;11.654;2023-04-10T02:36:37;96897.34;;;-0.26;100.00
62510;BME280;48558;48.242;11.654;2023-04-10T02:40:50;96872.38;;;-0.49;100.00
62510;BME280;48558;48.242;11.654;2023-04-10T02:45:02;96894.22;;;-0.31;100.00
62510;BME280;48558;48.242;11.654;2023-04-10T02:49:15;96896.09;;;-0.39;100.00
62510;BME280;48558;48.242;11.654;2023-04-10T02:53:28;96899.50;;;-0.49;100.00
62510;BME280;48558;48.242;11.654;2023-04-10T02:57:42;96886.34;;;-0.47;100.00
62510;BME280;48558;48.242;11.654;2023-04-10T03:01:54;96896.00;;;-0.49;100.00
62510;BME280;48558;48.242;11.654;2023-04-10T03:06:08;96909.19;;;-0.51;100.00
62510;BME280;48558;48.242;11.654;2023-04-10T03:10:20;96902.97;;;-0.52;100.00
62510;BME280;48558;48.242;11.654;2023-04-10T03:14:33;96885.88;;;-0.59;100.00
62510;BME280;48558;48.242;11.654;2023-04-10T03:18:46;96890.91;;;-0.61;100.00
62510;BME280;48558;48.242;11.654;2023-04-10T03:22:58;96906.00;;;-0.60;100.00
62510;BME280;48558;48.242;11.654;2023-04-10T03:27:11;96900.19;;;-0.62;100.00
62510;BME280;48558;48.242;11.654;2023-04-10T03:31:24;96893.94;;;-0.66;100.00
62510;BME280;48558;48.242;11.654;2023-04-10T03:35:37;96896.22;;;-0.72;100.00
62510;BME280;48558;48.242;11.654;2023-04-10T03:39:49;96883.69;;;-0.84;100.00
62510;BME280;48558;48.242;11.654;2023-04-10T03:44:03;96898.94;;;-0.72;100.00
62510;BME280;48558;48.242;11.654;2023-04-10T03:48:15;96895.13;;;-0.64;100.00
62510;BME280;48558;48.242;11.654;2023-04-10T03:52:29;96900.13;;;-0.69;100.00
62510;BME280;48558;48.242;11.654;2023-04-10T03:56:41;96891.81;;;-0.91;100.00
62510;BME280;48558;48.242;11.654;2023-04-10T04:00:54;96895.34;;;-0.83;100.00
62510;BME280;48558;48.242;11.654;2023-04-10T04:05:07;96898.81;;;-0.86;100.00
62510;BME280;48558;48.242;11.654;2023-04-10T04:09:20;96885.53;;;-0.98;100.00
62510;BME280;48558;48.242;11.654;2023-04-10T04:13:33;96887.44;;;-0.99;100.00
62510;BME280;48558;48.242;11.654;2023-04-10T04:17:45;96895.56;;;-1.02;100.00
62510;BME280;48558;48.242;11.654;2023-04-10T04:21:58;96889.78;;;-0.97;100.00
62510;BME280;48558;48.242;11.654;2023-04-10T04:26:11;96886.91;;;-1.15;100.00
62510;BME280;48558;48.242;11.654;2023-04-10T04:30:24;96899.41;;;-1.07;100.00
62510;BME280;48558;48.242;11.654;2023-04-10T04:34:36;96889.28;;;-1.10;100.00
62510;BME280;48558;48.242;11.654;2023-04-10T04:38:49;96899.09;;;-0.98;100.00
62510;BME280;48558;48.242;11.654;2023-04-10T04:43:01;96905.28;;;-0.98;100.00
62510;BME280;48558;48.242;11.654;2023-04-10T04:47:14;96913.44;;;-0.94;100.00
62510;BME280;48558;48.242;11.654;2023-04-10T04:51:27;96903.53;;;-0.80;100.00
62510;BME280;48558;48.242;11.654;2023-04-10T04:55:39;96925.31;;;-0.73;100.00
62510;BME280;48558;48.242;11.654;2023-04-10T04:59:52;96907.38;;;-0.81;100.00
62510;BME280;48558;48.242;11.654;2023-04-10T05:04:05;96912.94;;;-0.66;100.00
62510;BME280;48558;48.242;11.654;2023-04-10T05:08:18;96914.66;;;-0.48;100.00
62510;BME280;48558;48.242;11.654;2023-04-10T05:12:30;96914.75;;;-0.34;100.00
62510;BME280;48558;48.242;11.654;2023-04-10T05:16:43;96919.47;;;-0.24;100.00
62510;BME280;48558;48.242;11.654;2023-04-10T05:20:55;96916.88;;;-0.10;100.00
62510;BME280;48558;48.242;11.654;2023-04-10T05:25:08;96925.09;;;0.05;100.00
62510;BME280;48558;48.242;11.654;2023-04-10T05:29:20;96912.38;;;0.16;100.00
62510;BME280;48558;48.242;11.654;2023-04-10T05:33:33;96910.88;;;0.32;100.00
62510;BME280;48558;48.242;11.654;2023-04-10T05:37:45;96921.06;;;0.49;100.00
62510;BME280;48558;48.242;11.654;2023-04-10T05:41:58;96908.28;;;0.57;100.00
62510;BME280;48558;48.242;11.654;2023-04-10T05:46:10;96932.53;;;0.97;100.00
62510;BME280;48558;48.242;11.654;2023-04-10T05:50:24;96918.19;;;1.21;100.00
62510;BME280;48558;48.242;11.654;2023-04-10T05:54:38;96918.59;;;1.48;100.00
62510;BME280;48558;48.242;11.654;2023-04-10T05:58:50;96918.19;;;1.64;100.00
62510;BME280;48558;48.242;11.654;2023-04-10T06:03:03;96924.81;;;1.80;100.00
62510;BME280;48558;48.242;11.654;2023-04-10T06:07:16;96944.25;;;2.07;100.00
62510;BME280;48558;48.242;11.654;2023-04-10T06:11:28;96948.06;;;2.52;100.00
62510;BME280;48558;48.242;11.654;2023-04-10T06:15:41;96944.84;;;2.81;100.00
62510;BME280;48558;48.242;11.654;2023-04-10T06:19:54;96940.38;;;3.12;100.00
62510;BME280;48558;48.242;11.654;2023-04-10T06:24:07;96944.75;;;3.03;100.00
62510;BME280;48558;48.242;11.654;2023-04-10T06:28:23;96946.66;;;3.09;100.00
62510;BME280;48558;48.242;11.654;2023-04-10T06:32:35;96947.69;;;3.33;100.00
62510;BME280;48558;48.242;11.654;2023-04-10T06:36:58;96940.69;;;3.32;100.00
62510;BME280;48558;48.242;11.654;2023-04-10T06:41:10;96923.09;;;3.88;100.00
62510;BME280;48558;48.242;11.654;2023-04-10T06:45:23;96922.00;;;4.22;100.00
62510;BME280;48558;48.242;11.654;2023-04-10T06:49:42;96924.13;;;4.42;100.00
62510;BME280;48558;48.242;11.654;2023-04-10T06:53:54;96918.56;;;4.49;100.00
62510;BME280;48558;48.242;11.654;2023-04-10T06:58:07;96918.06;;;4.91;100.00
62510;BME280;48558;48.242;11.654;2023-04-10T07:02:19;96924.56;;;5.04;100.00
62510;BME280;48558;48.242;11.654;2023-04-10T07:06:32;96906.38;;;5.44;100.00
62510;BME280;48558;48.242;11.654;2023-04-10T07:10:45;96910.31;;;5.69;100.00
62510;BME280;48558;48.242;11.654;2023-04-10T07:15:04;96911.22;;;5.86;100.00
62510;BME280;48558;48.242;11.654;2023-04-10T07:19:17;96906.53;;;6.10;100.00
62510;BME280;48558;48.242;11.654;2023-04-10T07:23:30;96905.28;;;6.34;100.00
62510;BME280;48558;48.242;11.654;2023-04-10T07:27:42;96910.06;;;6.53;100.00
62510;BME280;48558;48.242;11.654;2023-04-10T07:31:55;96905.06;;;6.87;100.00
62510;BME280;48558;48.242;11.654;2023-04-10T07:36:08;96899.19;;;7.05;100.00
62510;BME280;48558;48.242;11.654;2023-04-10T07:40:20;96904.78;;;7.17;100.00
62510;BME280;48558;48.242;11.654;2023-04-10T07:44:33;96903.69;;;7.51;100.00
62510;BME280;48558;48.242;11.654;2023-04-10T07:48:55;96907.81;;;7.91;100.00
62510;BME280;48558;48.242;11.654;2023-04-10T07:53:08;96901.09;;;7.92;100.00
62510;BME280;48558;48.242;11.654;2023-04-10T07:57:20;96909.19;;;8.31;100.00
62510;BME280;48558;48.242;11.654;2023-04-10T08:01:34;96903.19;;;8.49;100.00
62510;BME280;48558;48.242;11.654;2023-04-10T08:05:47;96900.16;;;8.59;100.00
62510;BME280;48558;48.242;11.654;2023-04-10T08:10:00;96894.13;;;8.64;100.00
62510;BME280;48558;48.242;11.654;2023-04-10T08:14:13;96892.97;;;9.45;100.00
62510;BME280;48558;48.242;11.654;2023-04-10T08:18:28;96905.78;;;9.51;100.00
62510;BME280;48558;48.242;11.654;2023-04-10T08:22:41;96892.84;;;9.48;100.00
62510;BME280;48558;48.242;11.654;2023-04-10T08:27:05;96885.09;;;9.93;100.00
62510;BME280;48558;48.242;11.654;2023-04-10T08:31:19;96891.56;;;10.25;100.00
62510;BME280;48558;48.242;11.654;2023-04-10T08:35:40;96894.88;;;10.66;100.00
62510;BME280;48558;48.242;11.654;2023-04-10T08:39:56;96890.63;;;10.96;100.00
62510;BME280;48558;48.242;11.654;2023-04-10T08:44:16;96882.75;;;11.47;100.00
62510;BME280;48558;48.242;11.654;2023-04-10T08:48:37;96888.75;;;12.25;88.83
62510;BME280;48558;48.242;11.654;2023-04-10T08:52:52;96876.03;;;11.97;87.57
62510;BME280;48558;48.242;11.654;2023-04-10T08:57:07;96882.69;;;12.08;80.35
62510;BME280;48558;48.242;11.654;2023-04-10T09:01:32;96877.97;;;12.45;79.74
62510;BME280;48558;48.242;11.654;2023-04-10T09:05:49;96884.91;;;12.59;85.67
62510;BME280;48558;48.242;11.654;2023-04-10T09:10:18;96880.44;;;12.88;79.60
62510;BME280;48558;48.242;11.654;2023-04-10T09:14:32;96866.88;;;13.18;70.99
62510;BME280;48558;48.242;11.654;2023-04-10T09:18:47;96865.47;;;13.04;72.94
62510;BME280;48558;48.242;11.654;2023-04-10T09:23:00;96877.56;;;13.52;69.67
62510;BME280;48558;48.242;11.654;2023-04-10T09:27:30;96870.56;;;13.65;67.92
62510;BME280;48558;48.242;11.654;2023-04-10T09:31:54;96861.56;;;14.03;69.81
62510;BME280;48558;48.242;11.654;2023-04-10T09:36:11;96862.03;;;14.34;58.86
62510;BME280;48558;48.242;11.654;2023-04-10T09:40:25;96851.16;;;15.28;58.47
62510;BME280;48558;48.242;11.654;2023-04-10T09:44:38;96847.78;;;15.09;56.81
62510;BME280;48558;48.242;11.654;2023-04-10T09:48:54;96844.59;;;14.25;59.72
62510;BME280;48558;48.242;11.654;2023-04-10T09:53:14;96831.28;;;15.49;58.04
62510;BME280;48558;48.242;11.654;2023-04-10T09:57:30;96822.25;;;15.25;52.08
62510;BME280;48558;48.242;11.654;2023-04-10T10:01:43;96827.03;;;15.25;52.39
62510;BME280;48558;48.242;11.654;2023-04-10T10:05:57;96816.88;;;15.36;61.54
62510;BME280;48558;48.242;11.654;2023-04-10T10:10:11;96803.69;;;16.01;51.93
62510;BME280;48558;48.242;11.654;2023-04-10T10:14:24;96814.22;;;16.97;51.07
62510;BME280;48558;48.242;11.654;2023-04-10T10:18:45;96782.94;;;15.67;50.95
62510;BME280;48558;48.242;11.654;2023-04-10T10:23:07;96801.75;;;15.92;52.24
62510;BME280;48558;48.242;11.654;2023-04-10T10:27:19;96798.72;;;16.10;51.38
62510;BME280;48558;48.242;11.654;2023-04-10T10:31:32;96793.47;;;17.04;47.11
62510;BME280;48558;48.242;11.654;2023-04-10T10:35:48;96790.56;;;16.67;48.71
62510;BME280;48558;48.242;11.654;2023-04-10T10:45:16;96767.44;;;15.46;49.62
62510;BME280;48558;48.242;11.654;2023-04-10T10:49:50;96777.03;;;17.43;48.97
62510;BME280;48558;48.242;11.654;2023-04-10T10:58:52;96753.75;;;16.89;48.31
62510;BME280;48558;48.242;11.654;2023-04-10T11:07:19;96742.84;;;16.65;49.38
62510;BME280;48558;48.242;11.654;2023-04-10T11:11:56;96740.06;;;18.01;47.73
62510;BME280;48558;48.242;11.654;2023-04-10T11:16:10;96712.31;;;18.56;46.30
62510;BME280;48558;48.242;11.654;2023-04-10T11:20:22;96719.94;;;18.56;47.27
62510;BME280;48558;48.242;11.654;2023-04-10T11:24:58;96717.09;;;17.44;45.77
62510;BME280;48558;48.242;11.654;2023-04-10T11:33:29;96701.13;;;18.84;44.89
62510;BME280;48558;48.242;11.654;2023-04-10T11:37:41;96701.13;;;17.86;43.38
62510;BME280;48558;48.242;11.654;2023-04-10T11:41:54;96693.50;;;19.12;43.99
62510;BME280;48558;48.242;11.654;2023-04-10T11:46:08;96688.16;;;19.42;39.85
62510;BME280;48558;48.242;11.654;2023-04-10T11:50:21;96666.78;;;18.95;41.51
62510;BME280;48558;48.242;11.654;2023-04-10T11:54:33;96666.22;;;19.46;41.71
62510;BME280;48558;48.242;11.654;2023-04-10T11:58:49;96671.63;;;18.72;45.00
62510;BME280;48558;48.242;11.654;2023-04-10T12:03:05;96663.78;;;19.94;36.52
62510;BME280;48558;48.242;11.654;2023-04-10T12:07:28;96659.59;;;19.49;38.11
62510;BME280;48558;48.242;11.654;2023-04-10T12:11:58;96666.47;;;19.43;37.80
62510;BME280;48558;48.242;11.654;2023-04-10T12:16:12;96664.25;;;18.75;36.03
62510;BME280;48558;48.242;11.654;2023-04-10T12:20:25;96664.19;;;18.52;36.88
62510;BME280;48558;48.242;11.654;2023-04-10T12:24:47;96667.78;;;18.81;38.34
62510;BME280;48558;48.242;11.654;2023-04-10T12:29:02;96658.56;;;20.21;34.69
62510;BME280;48558;48.242;11.654;2023-04-10T12:33:20;96671.09;;;19.23;37.18
62510;BME280;48558;48.242;11.654;2023-04-10T12:37:46;96663.13;;;18.33;40.10
62510;BME280;48558;48.242;11.654;2023-04-10T12:46:28;96645.00;;;19.78;35.66
62510;BME280;48558;48.242;11.654;2023-04-10T12:50:47;96640.63;;;19.83;36.02
62510;BME280;48558;48.242;11.654;2023-04-10T12:55:17;96637.91;;;20.24;34.82
62510;BME280;48558;48.242;11.654;2023-04-10T12:59:32;96634.97;;;19.88;36.19
62510;BME280;48558;48.242;11.654;2023-04-10T13:03:44;96621.69;;;19.09;39.78
62510;BME280;48558;48.242;11.654;2023-04-10T13:08:00;96615.63;;;19.85;35.87
62510;BME280;48558;48.242;11.654;2023-04-10T13:12:12;96596.50;;;19.04;35.16
62510;BME280;48558;48.242;11.654;2023-04-10T13:16:25;96613.19;;;19.59;38.15
62510;BME280;48558;48.242;11.654;2023-04-10T13:20:39;96614.28;;;18.34;35.62
62510;BME280;48558;48.242;11.654;2023-04-10T13:24:52;96601.03;;;19.29;35.17
62510;BME280;48558;48.242;11.654;2023-04-10T13:29:04;96595.69;;;19.31;36.70
62510;BME280;48558;48.242;11.654;2023-04-10T13:33:17;96599.22;;;19.43;36.75
62510;BME280;48558;48.242;11.654;2023-04-10T13:37:29;96576.16;;;20.59;32.02
62510;BME280;48558;48.242;11.654;2023-04-10T13:41:42;96573.22;;;19.99;31.43
62510;BME280;48558;48.242;11.654;2023-04-10T13:45:54;96563.66;;;20.25;34.83
62510;BME280;48558;48.242;11.654;2023-04-10T13:50:07;96551.94;;;19.74;33.04
62510;BME280;48558;48.242;11.654;2023-04-10T13:54:20;96545.59;;;18.78;35.68
62510;BME280;48558;48.242;11.654;2023-04-10T13:58:33;96548.13;;;18.98;37.24
62510;BME280;48558;48.242;11.654;2023-04-10T14:02:45;96548.28;;;19.39;34.91
62510;BME280;48558;48.242;11.654;2023-04-10T14:06:58;96537.41;;;19.13;36.98
62510;BME280;48558;48.242;11.654;2023-04-10T14:11:21;96545.69;;;19.98;35.42
62510;BME280;48558;48.242;11.654;2023-04-10T14:15:34;96545.34;;;20.13;34.07
62510;BME280;48558;48.242;11.654;2023-04-10T14:19:46;96534.88;;;21.69;32.59
62510;BME280;48558;48.242;11.654;2023-04-10T14:24:02;96525.44;;;21.05;33.62
62510;BME280;48558;48.242;11.654;2023-04-10T14:28:15;96521.94;;;21.42;32.77
62510;BME280;48558;48.242;11.654;2023-04-10T14:32:30;96498.41;;;19.72;31.48
62510;BME280;48558;48.242;11.654;2023-04-10T14:36:43;96502.13;;;20.32;31.61
62510;BME280;48558;48.242;11.654;2023-04-10T14:40:55;96501.44;;;21.04;30.98
62510;BME280;48558;48.242;11.654;2023-04-10T14:45:08;96488.88;;;21.67;30.94
62510;BME280;48558;48.242;11.654;2023-04-10T14:49:21;96493.69;;;21.10;30.75
62510;BME280;48558;48.242;11.654;2023-04-10T14:53:35;96492.34;;;19.11;32.91
62510;BME280;48558;48.242;11.654;2023-04-10T14:57:47;96486.03;;;20.62;31.58
62510;BME280;48558;48.242;11.654;2023-04-10T15:02:00;96494.25;;;20.55;30.11
62510;BME280;48558;48.242;11.654;2023-04-10T15:06:12;96481.16;;;21.73;30.30
62510;BME280;48558;48.242;11.654;2023-04-10T15:10:25;96486.94;;;20.11;30.66
62510;BME280;48558;48.242;11.654;2023-04-10T15:14:52;96472.84;;;21.00;30.88
62510;BME280;48558;48.242;11.654;2023-04-10T15:19:05;96456.63;;;20.88;29.78
62510;BME280;48558;48.242;11.654;2023-04-10T15:23:17;96458.09;;;20.46;30.93
62510;BME280;48558;48.242;11.654;2023-04-10T15:27:30;96453.00;;;20.93;30.05
62510;BME280;48558;48.242;11.654;2023-04-10T15:31:42;96442.72;;;20.77;30.48
62510;BME280;48558;48.242;11.654;2023-04-10T15:35:55;96418.59;;;19.38;32.37
62510;BME280;48558;48.242;11.654;2023-04-10T15:40:07;96443.34;;;18.32;32.48
62510;BME280;48558;48.242;11.654;2023-04-10T15:44:21;96440.19;;;17.19;35.80
62510;BME280;48558;48.242;11.654;2023-04-10T15:48:34;96432.25;;;16.96;35.71
62510;BME280;48558;48.242;11.654;2023-04-10T15:52:46;96442.25;;;16.29;37.30
62510;BME280;48558;48.242;11.654;2023-04-10T15:56:59;96434.38;;;17.29;34.47
62510;BME280;48558;48.242;11.654;2023-04-10T16:01:12;96433.72;;;17.78;34.76
62510;BME280;48558;48.242;11.654;2023-04-10T16:05:25;96421.16;;;18.73;34.10
62510;BME280;48558;48.242;11.654;2023-04-10T16:09:37;96430.66;;;17.54;34.34
62510;BME280;48558;48.242;11.654;2023-04-10T16:13:50;96425.56;;;16.71;37.30
62510;BME280;48558;48.242;11.654;2023-04-10T16:18:03;96417.25;;;15.72;37.73
62510;BME280;48558;48.242;11.654;2023-04-10T16:22:16;96410.91;;;14.94;40.64
62510;BME280;48558;48.242;11.654;2023-04-10T16:26:39;96404.72;;;14.65;41.28
62510;BME280;48558;48.242;11.654;2023-04-10T16:31:01;96387.09;;;13.98;42.50
62510;BME280;48558;48.242;11.654;2023-04-10T16:35:14;96390.63;;;14.13;41.76
62510;BME280;48558;48.242;11.654;2023-04-10T16:39:29;96392.97;;;13.86;41.57
62510;BME280;48558;48.242;11.654;2023-04-10T16:43:41;96390.00;;;13.89;42.63
62510;BME280;48558;48.242;11.654;2023-04-10T16:47:54;96384.31;;;13.63;43.41
62510;BME280;48558;48.242;11.654;2023-04-10T16:52:07;96391.78;;;13.57;42.62
62510;BME280;48558;48.242;11.654;2023-04-10T16:56:19;96390.06;;;13.31;43.98
62510;BME280;48558;48.242;11.654;2023-04-10T17:00:32;96390.72;;;13.26;44.36
62510;BME280;48558;48.242;11.654;2023-04-10T17:04:45;96367.25;;;12.98;45.83
62510;BME280;48558;48.242;11.654;2023-04-10T17:08:57;96334.47;;;12.58;46.35
62510;BME280;48558;48.242;11.654;2023-04-10T17:13:10;96362.25;;;12.72;47.64
62510;BME280;48558;48.242;11.654;2023-04-10T17:17:23;96346.03;;;12.18;49.94
62510;BME280;48558;48.242;11.654;2023-04-10T17:21:36;96344.09;;;12.09;52.88
62510;BME280;48558;48.242;11.654;2023-04-10T17:25:48;96342.31;;;11.97;52.50
62510;BME280;48558;48.242;11.654;2023-04-10T17:30:01;96333.03;;;11.77;53.80
62510;BME280;48558;48.242;11.654;2023-04-10T17:34:14;96348.47;;;11.69;56.19
62510;BME280;48558;48.242;11.654;2023-04-10T17:38:27;96340.63;;;11.58;58.22
62510;BME280;48558;48.242;11.654;2023-04-10T17:42:39;96330.88;;;11.39;61.94
62510;BME280;48558;48.242;11.654;2023-04-10T17:46:52;96334.31;;;11.25;64.47
62510;BME280;48558;48.242;11.654;2023-04-10T17:51:05;96333.75;;;11.12;61.86
62510;BME280;48558;48.242;11.654;2023-04-10T17:55:18;96338.09;;;10.86;70.04
62510;BME280;48558;48.242;11.654;2023-04-10T17:59:31;96333.69;;;10.61;71.31
62510;BME280;48558;48.242;11.654;2023-04-10T18:03:44;96334.91;;;10.60;73.06
62510;BME280;48558;48.242;11.654;2023-04-10T18:07:56;96333.06;;;10.48;75.04
62510;BME280;48558;48.242;11.654;2023-04-10T18:12:09;96315.59;;;10.42;75.93
62510;BME280;48558;48.242;11.654;2023-04-10T18:16:21;96320.94;;;10.45;79.35
62510;BME280;48558;48.242;11.654;2023-04-10T18:20:34;96328.78;;;10.47;79.35
62510;BME280;48558;48.242;11.654;2023-04-10T18:24:47;96315.00;;;10.29;84.08
62510;BME280;48558;48.242;11.654;2023-04-10T18:28:59;96324.00;;;10.11;84.66
62510;BME280;48558;48.242;11.654;2023-04-10T18:33:12;96312.94;;;10.02;86.10
62510;BME280;48558;48.242;11.654;2023-04-10T18:37:31;96310.63;;;9.91;88.27
62510;BME280;48558;48.242;11.654;2023-04-10T18:41:44;96315.06;;;9.89;89.55
62510;BME280;48558;48.242;11.654;2023-04-10T18:45:58;96302.75;;;9.63;92.24
62510;BME280;48558;48.242;11.654;2023-04-10T18:50:11;96310.75;;;9.70;92.33
62510;BME280;48558;48.242;11.654;2023-04-10T18:54:34;96311.31;;;9.56;96.12
62510;BME280;48558;48.242;11.654;2023-04-10T18:58:46;96298.28;;;9.47;98.63
62510;BME280;48558;48.242;11.654;2023-04-10T19:03:01;96316.56;;;9.63;95.42
62510;BME280;48558;48.242;11.654;2023-04-10T19:07:24;96314.63;;;9.42;98.21
62510;BME280;48558;48.242;11.654;2023-04-10T19:11:37;96311.97;;;9.20;100.00
62510;BME280;48558;48.242;11.654;2023-04-10T19:16:04;96306.09;;;9.09;100.00
62510;BME280;48558;48.242;11.654;2023-04-10T19:20:22;96303.69;;;8.89;100.00
62510;BME280;48558;48.242;11.654;2023-04-10T19:24:54;96300.81;;;8.71;100.00
62510;BME280;48558;48.242;11.654;2023-04-10T19:29:06;96278.75;;;8.62;100.00
62510;BME280;48558;48.242;11.654;2023-04-10T19:33:19;96270.38;;;8.44;100.00
62510;BME280;48558;48.242;11.654;2023-04-10T19:37:32;96258.03;;;8.27;100.00
62510;BME280;48558;48.242;11.654;2023-04-10T19:41:45;96252.63;;;8.45;100.00
62510;BME280;48558;48.242;11.654;2023-04-10T19:45:58;96247.53;;;8.34;100.00
62510;BME280;48558;48.242;11.654;2023-04-10T19:50:10;96243.50;;;8.26;100.00
62510;BME280;48558;48.242;11.654;2023-04-10T19:54:23;96247.34;;;8.29;100.00
62510;BME280;48558;48.242;11.654;2023-04-10T19:58:35;96252.88;;;8.16;100.00
62510;BME280;48558;48.242;11.654;2023-04-10T20:02:52;96253.28;;;8.27;100.00
62510;BME280;48558;48.242;11.654;2023-04-10T20:07:05;96254.66;;;8.10;100.00
62510;BME280;48558;48.242;11.654;2023-04-10T20:11:18;96260.72;;;8.05;100.00
62510;BME280;48558;48.242;11.654;2023-04-10T20:15:30;96247.56;;;8.00;100.00
62510;BME280;48558;48.242;11.654;2023-04-10T20:19:50;96234.06;;;7.93;100.00
62510;BME280;48558;48.242;11.654;2023-04-10T20:24:03;96240.44;;;7.90;100.00
62510;BME280;48558;48.242;11.654;2023-04-10T20:28:15;96236.34;;;7.94;100.00
62510;BME280;48558;48.242;11.654;2023-04-10T20:32:28;96236.50;;;7.91;100.00
62510;BME280;48558;48.242;11.654;2023-04-10T20:36:41;96225.59;;;7.87;100.00
62510;BME280;48558;48.242;11.654;2023-04-10T20:40:53;96236.72;;;7.84;100.00
62510;BME280;48558;48.242;11.654;2023-04-10T20:45:06;96232.03;;;7.72;100.00
62510;BME280;48558;48.242;11.654;2023-04-10T20:49:19;96229.69;;;7.49;100.00
62510;BME280;48558;48.242;11.654;2023-04-10T20:53:32;96237.97;;;7.36;100.00
62510;BME280;48558;48.242;11.654;2023-04-10T20:57:45;96244.47;;;7.30;100.00
62510;BME280;48558;48.242;11.654;2023-04-10T21:02:07;96234.81;;;7.25;100.00
62510;BME280;48558;48.242;11.654;2023-04-10T21:06:20;96229.09;;;7.19;100.00
62510;BME280;48558;48.242;11.654;2023-04-10T21:10:32;96226.00;;;7.17;100.00
62510;BME280;48558;48.242;11.654;2023-04-10T21:14:45;96223.91;;;7.21;100.00
62510;BME280;48558;48.242;11.654;2023-04-10T21:18:59;96229.13;;;7.07;100.00
62510;BME280;48558;48.242;11.654;2023-04-10T21:23:11;96227.78;;;6.99;100.00
62510;BME280;48558;48.242;11.654;2023-04-10T21:27:24;96236.25;;;7.04;100.00
62510;BME280;48558;48.242;11.654;2023-04-10T21:31:46;96226.25;;;6.98;100.00
62510;BME280;48558;48.242;11.654;2023-04-10T21:36:01;96236.03;;;6.99;100.00
62510;BME280;48558;48.242;11.654;2023-04-10T21:40:14;96235.50;;;6.91;100.00
62510;BME280;48558;48.242;11.654;2023-04-10T21:44:26;96242.97;;;6.91;100.00
62510;BME280;48558;48.242;11.654;2023-04-10T21:48:39;96241.88;;;7.01;100.00
62510;BME280;48558;48.242;11.654;2023-04-10T21:52:52;96227.88;;;7.08;100.00
62510;BME280;48558;48.242;11.654;2023-04-10T21:57:05;96220.66;;;7.01;100.00
62510;BME280;48558;48.242;11.654;2023-04-10T22:01:18;96211.63;;;7.13;100.00
62510;BME280;48558;48.242;11.654;2023-04-10T22:05:31;96200.13;;;6.93;100.00
62510;BME280;48558;48.242;11.654;2023-04-10T22:09:43;96190.31;;;6.92;100.00
62510;BME280;48558;48.242;11.654;2023-04-10T22:13:56;96174.19;;;6.82;100.00
62510;BME280;48558;48.242;11.654;2023-04-10T22:18:23;96177.94;;;6.75;100.00
62510;BME280;48558;48.242;11.654;2023-04-10T22:22:42;96163.00;;;6.89;100.00
62510;BME280;48558;48.242;11.654;2023-04-10T22:26:54;96148.84;;;6.65;100.00
62510;BME280;48558;48.242;11.654;2023-04-10T22:31:16;96156.28;;;6.77;100.00
62510;BME280;48558;48.242;11.654;2023-04-10T22:35:29;96168.47;;;6.76;100.00
62510;BME280;48558;48.242;11.654;2023-04-10T22:39:42;96181.03;;;6.65;100.00
62510;BME280;48558;48.242;11.654;2023-04-10T22:43:54;96165.75;;;6.64;100.00
62510;BME280;48558;48.242;11.654;2023-04-10T22:48:07;96180.69;;;6.63;100.00